FNCT METAR and TAF | Updated Today

FNCT METAR

Catumbela Airport

Observation time: 62 min. ago

FNCT 011400Z 25008KT 9999 FEW015 BKN120 28/23 Q1011

Need help? Read our tutorial on how to read METARs or read the parsed version below.

Catumbela Airport (FNCT) METAR

  • Weather conditions on Wed, 01 Feb 2023 14:00:00 +0000 (62 min. ago):
  • Present conditions: Dry
  • Clouds: A few at 457 meters; broken sky at 3658 meters
  • Visibility: Greater than 10 km
  • Wind: 250 degrees at 8 knots
  • Temperature: 28 celsius
  • Dew point: 23 celsius
  • Pressure: 1011 millibars
  • Remarks: None


Useful to know...

FNCT TAF

Catumbela Airport

TAF FNCT 011055Z 0112/0124 29010KT 9999 FEW016 BKN030 TEMPO 0114/0118 FEW026 TEMPO 0120/0124 22005KT FEW010 FEW020CB
Observation time: 4:07 hr. ago
Need help? Read our tutorial on how to read TAFs or read the parsed version below.

Parsed version of TAF for Catumbela Airport (FNCT)

  • From 01 February at 12:00 UTC, to day 01 of the month at 24:00 UTC
  • Clouds: A few at 488 meters; broken sky at 914 meters
  • Visibility: Greater than 10 km
  • Wind: 290 degrees at 10
  • Expected to arise temporarily, from 01 February at 14:00 UTC, to day 01 of the month at 18:00 UTC
  • Clouds: A few at 792 meters
  • Expected to arise temporarily, from 01 February at 20:00 UTC, to day 01 of the month at 24:00 UTC
  • Clouds: A few at 305 meters; a few at 610 meters, cumulonimbus
  • Wind: 220 degrees at 5